sensor_id;sensor_type;location;lat;lon;timestamp;P1;durP1;ratioP1;P2;durP2;ratioP2
1885;SDS011;943;51.568;6.998;2023-03-21T00:01:51;16.50;;;9.57;;
1885;SDS011;943;51.568;6.998;2023-03-21T00:04:21;13.53;;;9.73;;
1885;SDS011;943;51.568;6.998;2023-03-21T00:07:12;14.20;;;9.50;;
1885;SDS011;943;51.568;6.998;2023-03-21T00:09:40;14.67;;;7.80;;
1885;SDS011;943;51.568;6.998;2023-03-21T00:12:08;24.87;;;10.07;;
1885;SDS011;943;51.568;6.998;2023-03-21T00:14:37;16.30;;;9.67;;
1885;SDS011;943;51.568;6.998;2023-03-21T00:17:05;15.00;;;9.87;;
1885;SDS011;943;51.568;6.998;2023-03-21T00:19:33;21.00;;;8.80;;
1885;SDS011;943;51.568;6.998;2023-03-21T00:22:04;17.47;;;9.40;;
1885;SDS011;943;51.568;6.998;2023-03-21T00:24:34;13.03;;;9.10;;
1885;SDS011;943;51.568;6.998;2023-03-21T00:27:03;20.20;;;9.50;;
1885;SDS011;943;51.568;6.998;2023-03-21T00:29:53;19.73;;;9.77;;
1885;SDS011;943;51.568;6.998;2023-03-21T00:32:21;21.17;;;9.60;;
1885;SDS011;943;51.568;6.998;2023-03-21T00:34:50;13.73;;;9.20;;
1885;SDS011;943;51.568;6.998;2023-03-21T00:37:38;24.50;;;9.50;;
1885;SDS011;943;51.568;6.998;2023-03-21T00:40:08;11.50;;;8.10;;
1885;SDS011;943;51.568;6.998;2023-03-21T00:42:53;22.13;;;8.27;;
1885;SDS011;943;51.568;6.998;2023-03-21T00:45:20;19.63;;;9.50;;
1885;SDS011;943;51.568;6.998;2023-03-21T00:47:48;13.97;;;7.63;;
1885;SDS011;943;51.568;6.998;2023-03-21T00:50:16;13.60;;;8.17;;
1885;SDS011;943;51.568;6.998;2023-03-21T00:52:44;13.93;;;8.83;;
1885;SDS011;943;51.568;6.998;2023-03-21T00:55:13;15.43;;;8.43;;
1885;SDS011;943;51.568;6.998;2023-03-21T00:57:45;20.87;;;8.10;;
1885;SDS011;943;51.568;6.998;2023-03-21T01:00:26;17.97;;;7.53;;
1885;SDS011;943;51.568;6.998;2023-03-21T01:02:55;15.27;;;7.57;;
1885;SDS011;943;51.568;6.998;2023-03-21T01:05:39;12.67;;;6.80;;
1885;SDS011;943;51.568;6.998;2023-03-21T01:08:30;14.40;;;7.63;;
1885;SDS011;943;51.568;6.998;2023-03-21T01:11:19;10.30;;;6.53;;
1885;SDS011;943;51.568;6.998;2023-03-21T01:13:54;17.20;;;8.73;;
1885;SDS011;943;51.568;6.998;2023-03-21T01:16:36;13.33;;;7.50;;
1885;SDS011;943;51.568;6.998;2023-03-21T01:19:05;12.97;;;8.10;;
1885;SDS011;943;51.568;6.998;2023-03-21T01:21:53;16.20;;;8.20;;
1885;SDS011;943;51.568;6.998;2023-03-21T01:24:23;20.80;;;8.50;;
1885;SDS011;943;51.568;6.998;2023-03-21T01:26:51;14.67;;;7.60;;
1885;SDS011;943;51.568;6.998;2023-03-21T01:29:19;24.20;;;9.23;;
1885;SDS011;943;51.568;6.998;2023-03-21T01:31:47;17.43;;;8.97;;
1885;SDS011;943;51.568;6.998;2023-03-21T01:34:15;12.23;;;8.70;;
1885;SDS011;943;51.568;6.998;2023-03-21T01:36:43;12.70;;;8.23;;
1885;SDS011;943;51.568;6.998;2023-03-21T01:39:16;18.57;;;10.07;;
1885;SDS011;943;51.568;6.998;2023-03-21T01:41:46;15.60;;;8.90;;
1885;SDS011;943;51.568;6.998;2023-03-21T01:44:17;12.23;;;8.40;;
1885;SDS011;943;51.568;6.998;2023-03-21T01:46:49;13.07;;;9.03;;
1885;SDS011;943;51.568;6.998;2023-03-21T01:49:57;20.53;;;8.10;;
1885;SDS011;943;51.568;6.998;2023-03-21T01:52:41;17.53;;;8.53;;
1885;SDS011;943;51.568;6.998;2023-03-21T01:55:15;20.37;;;9.00;;
1885;SDS011;943;51.568;6.998;2023-03-21T01:58:06;13.67;;;8.67;;
1885;SDS011;943;51.568;6.998;2023-03-21T02:01:01;15.40;;;8.57;;
1885;SDS011;943;51.568;6.998;2023-03-21T02:03:47;20.73;;;9.70;;
1885;SDS011;943;51.568;6.998;2023-03-21T02:06:48;14.70;;;8.67;;
1885;SDS011;943;51.568;6.998;2023-03-21T02:09:37;17.50;;;8.53;;
1885;SDS011;943;51.568;6.998;2023-03-21T02:12:16;19.90;;;8.97;;
1885;SDS011;943;51.568;6.998;2023-03-21T02:14:49;13.07;;;8.77;;
1885;SDS011;943;51.568;6.998;2023-03-21T02:28:02;19.20;;;9.23;;
1885;SDS011;943;51.568;6.998;2023-03-21T02:31:46;15.63;;;9.30;;
1885;SDS011;943;51.568;6.998;2023-03-21T02:41:20;19.20;;;10.57;;
1885;SDS011;943;51.568;6.998;2023-03-21T02:44:31;22.57;;;11.20;;
1885;SDS011;943;51.568;6.998;2023-03-21T02:48:12;18.03;;;9.90;;
1885;SDS011;943;51.568;6.998;2023-03-21T02:51:17;17.80;;;10.67;;
1885;SDS011;943;51.568;6.998;2023-03-21T02:53:54;19.27;;;11.50;;
1885;SDS011;943;51.568;6.998;2023-03-21T02:56:56;18.50;;;11.33;;
1885;SDS011;943;51.568;6.998;2023-03-21T02:59:30;18.53;;;10.53;;
1885;SDS011;943;51.568;6.998;2023-03-21T03:02:15;22.20;;;10.27;;
1885;SDS011;943;51.568;6.998;2023-03-21T03:04:53;21.60;;;11.37;;
1885;SDS011;943;51.568;6.998;2023-03-21T03:11:16;23.17;;;10.73;;
1885;SDS011;943;51.568;6.998;2023-03-21T03:23:54;21.00;;;11.30;;
1885;SDS011;943;51.568;6.998;2023-03-21T03:27:06;21.13;;;10.90;;
1885;SDS011;943;51.568;6.998;2023-03-21T03:30:07;23.57;;;11.97;;
1885;SDS011;943;51.568;6.998;2023-03-21T03:32:49;20.53;;;10.90;;
1885;SDS011;943;51.568;6.998;2023-03-21T03:35:28;22.80;;;11.60;;
1885;SDS011;943;51.568;6.998;2023-03-21T03:37:58;19.70;;;9.73;;
1885;SDS011;943;51.568;6.998;2023-03-21T03:40:35;23.90;;;11.93;;
1885;SDS011;943;51.568;6.998;2023-03-21T03:43:48;15.77;;;9.70;;
1885;SDS011;943;51.568;6.998;2023-03-21T03:46:33;27.53;;;12.50;;
1885;SDS011;943;51.568;6.998;2023-03-21T03:49:40;22.60;;;11.07;;
1885;SDS011;943;51.568;6.998;2023-03-21T03:52:55;19.03;;;10.77;;
1885;SDS011;943;51.568;6.998;2023-03-21T03:56:36;20.67;;;10.20;;
1885;SDS011;943;51.568;6.998;2023-03-21T03:59:06;22.87;;;10.37;;
1885;SDS011;943;51.568;6.998;2023-03-21T04:01:53;22.63;;;11.43;;
1885;SDS011;943;51.568;6.998;2023-03-21T04:04:22;21.13;;;10.57;;
1885;SDS011;943;51.568;6.998;2023-03-21T04:06:55;25.30;;;11.97;;
1885;SDS011;943;51.568;6.998;2023-03-21T04:09:24;17.63;;;11.70;;
1885;SDS011;943;51.568;6.998;2023-03-21T04:12:10;21.90;;;10.90;;
1885;SDS011;943;51.568;6.998;2023-03-21T04:14:44;20.00;;;10.30;;
1885;SDS011;943;51.568;6.998;2023-03-21T04:17:16;19.47;;;10.20;;
1885;SDS011;943;51.568;6.998;2023-03-21T04:19:46;18.80;;;11.83;;
1885;SDS011;943;51.568;6.998;2023-03-21T04:22:23;18.47;;;9.97;;
1885;SDS011;943;51.568;6.998;2023-03-21T04:24:53;19.20;;;10.27;;
1885;SDS011;943;51.568;6.998;2023-03-21T04:27:20;24.70;;;10.30;;
1885;SDS011;943;51.568;6.998;2023-03-21T04:30:04;17.17;;;10.03;;
1885;SDS011;943;51.568;6.998;2023-03-21T04:32:45;16.80;;;10.43;;
1885;SDS011;943;51.568;6.998;2023-03-21T04:35:23;17.93;;;11.73;;
1885;SDS011;943;51.568;6.998;2023-03-21T04:37:51;15.47;;;9.30;;
1885;SDS011;943;51.568;6.998;2023-03-21T04:40:21;22.70;;;10.63;;
1885;SDS011;943;51.568;6.998;2023-03-21T04:42:53;16.53;;;9.50;;
1885;SDS011;943;51.568;6.998;2023-03-21T04:45:22;14.77;;;9.00;;
1885;SDS011;943;51.568;6.998;2023-03-21T04:47:50;15.37;;;9.30;;
1885;SDS011;943;51.568;6.998;2023-03-21T04:50:18;17.60;;;9.10;;
1885;SDS011;943;51.568;6.998;2023-03-21T04:52:46;13.67;;;9.37;;
1885;SDS011;943;51.568;6.998;2023-03-21T04:55:14;15.33;;;9.87;;
1885;SDS011;943;51.568;6.998;2023-03-21T04:57:44;13.90;;;9.10;;
1885;SDS011;943;51.568;6.998;2023-03-21T05:00:12;18.03;;;9.57;;
1885;SDS011;943;51.568;6.998;2023-03-21T05:02:41;21.97;;;10.90;;
1885;SDS011;943;51.568;6.998;2023-03-21T05:05:10;13.00;;;7.93;;
1885;SDS011;943;51.568;6.998;2023-03-21T05:07:39;21.83;;;9.23;;
1885;SDS011;943;51.568;6.998;2023-03-21T05:10:09;13.63;;;8.53;;
1885;SDS011;943;51.568;6.998;2023-03-21T05:12:39;18.60;;;8.70;;
1885;SDS011;943;51.568;6.998;2023-03-21T05:15:07;15.03;;;8.20;;
1885;SDS011;943;51.568;6.998;2023-03-21T05:17:36;18.90;;;10.47;;
1885;SDS011;943;51.568;6.998;2023-03-21T05:20:04;17.20;;;9.00;;
1885;SDS011;943;51.568;6.998;2023-03-21T05:22:35;14.40;;;9.10;;
1885;SDS011;943;51.568;6.998;2023-03-21T05:25:09;13.77;;;9.00;;
1885;SDS011;943;51.568;6.998;2023-03-21T05:28:04;19.70;;;9.40;;
1885;SDS011;943;51.568;6.998;2023-03-21T05:30:34;14.27;;;8.07;;
1885;SDS011;943;51.568;6.998;2023-03-21T05:33:02;13.80;;;8.00;;
1885;SDS011;943;51.568;6.998;2023-03-21T05:35:31;17.20;;;9.77;;
1885;SDS011;943;51.568;6.998;2023-03-21T05:38:02;15.60;;;8.57;;
1885;SDS011;943;51.568;6.998;2023-03-21T05:40:37;22.87;;;9.80;;
1885;SDS011;943;51.568;6.998;2023-03-21T05:43:05;16.27;;;8.27;;
1885;SDS011;943;51.568;6.998;2023-03-21T05:45:33;16.93;;;8.87;;
1885;SDS011;943;51.568;6.998;2023-03-21T05:48:02;25.70;;;10.07;;
1885;SDS011;943;51.568;6.998;2023-03-21T05:50:38;17.73;;;10.20;;
1885;SDS011;943;51.568;6.998;2023-03-21T05:53:11;13.00;;;9.73;;
1885;SDS011;943;51.568;6.998;2023-03-21T05:55:39;17.27;;;8.80;;
1885;SDS011;943;51.568;6.998;2023-03-21T05:58:13;18.13;;;7.87;;
1885;SDS011;943;51.568;6.998;2023-03-21T06:00:46;18.83;;;10.30;;
1885;SDS011;943;51.568;6.998;2023-03-21T06:03:23;19.63;;;9.83;;
1885;SDS011;943;51.568;6.998;2023-03-21T06:06:04;20.60;;;9.93;;
1885;SDS011;943;51.568;6.998;2023-03-21T06:08:42;18.57;;;9.83;;
1885;SDS011;943;51.568;6.998;2023-03-21T06:11:29;22.20;;;10.53;;
1885;SDS011;943;51.568;6.998;2023-03-21T06:14:22;15.60;;;10.20;;
1885;SDS011;943;51.568;6.998;2023-03-21T06:17:11;20.20;;;9.80;;
1885;SDS011;943;51.568;6.998;2023-03-21T06:19:47;23.00;;;11.60;;
1885;SDS011;943;51.568;6.998;2023-03-21T06:22:21;14.83;;;10.60;;
1885;SDS011;943;51.568;6.998;2023-03-21T06:24:49;21.40;;;10.73;;
1885;SDS011;943;51.568;6.998;2023-03-21T06:27:17;30.63;;;11.90;;
1885;SDS011;943;51.568;6.998;2023-03-21T06:29:51;23.30;;;11.40;;
1885;SDS011;943;51.568;6.998;2023-03-21T06:32:20;21.73;;;11.27;;
1885;SDS011;943;51.568;6.998;2023-03-21T06:34:54;15.07;;;10.80;;
1885;SDS011;943;51.568;6.998;2023-03-21T06:37:22;20.90;;;10.90;;
1885;SDS011;943;51.568;6.998;2023-03-21T06:39:52;20.30;;;10.63;;
1885;SDS011;943;51.568;6.998;2023-03-21T06:42:21;23.83;;;11.80;;
1885;SDS011;943;51.568;6.998;2023-03-21T06:44:54;18.20;;;11.10;;
1885;SDS011;943;51.568;6.998;2023-03-21T06:47:22;21.27;;;11.47;;
1885;SDS011;943;51.568;6.998;2023-03-21T06:49:50;18.87;;;11.93;;
1885;SDS011;943;51.568;6.998;2023-03-21T06:52:18;23.17;;;10.47;;
1885;SDS011;943;51.568;6.998;2023-03-21T06:54:46;19.10;;;10.83;;
1885;SDS011;943;51.568;6.998;2023-03-21T06:57:15;20.10;;;10.30;;
1885;SDS011;943;51.568;6.998;2023-03-21T06:59:43;16.33;;;9.30;;
1885;SDS011;943;51.568;6.998;2023-03-21T07:02:18;15.60;;;9.10;;
1885;SDS011;943;51.568;6.998;2023-03-21T07:04:59;18.43;;;10.30;;
1885;SDS011;943;51.568;6.998;2023-03-21T07:07:28;16.83;;;9.00;;
1885;SDS011;943;51.568;6.998;2023-03-21T07:09:57;14.53;;;8.73;;
1885;SDS011;943;51.568;6.998;2023-03-21T07:12:38;22.10;;;9.10;;
1885;SDS011;943;51.568;6.998;2023-03-21T07:15:19;16.33;;;8.93;;
1885;SDS011;943;51.568;6.998;2023-03-21T07:17:49;13.47;;;8.70;;
1885;SDS011;943;51.568;6.998;2023-03-21T07:20:17;18.63;;;9.60;;
1885;SDS011;943;51.568;6.998;2023-03-21T07:22:45;13.03;;;8.53;;
1885;SDS011;943;51.568;6.998;2023-03-21T07:25:12;16.23;;;9.40;;
1885;SDS011;943;51.568;6.998;2023-03-21T07:27:43;20.33;;;8.67;;
1885;SDS011;943;51.568;6.998;2023-03-21T07:30:12;18.37;;;10.00;;
1885;SDS011;943;51.568;6.998;2023-03-21T07:32:41;17.40;;;8.97;;
1885;SDS011;943;51.568;6.998;2023-03-21T07:35:11;14.17;;;8.27;;
1885;SDS011;943;51.568;6.998;2023-03-21T07:37:43;12.97;;;8.27;;
1885;SDS011;943;51.568;6.998;2023-03-21T07:40:14;17.50;;;8.80;;
1885;SDS011;943;51.568;6.998;2023-03-21T07:42:44;18.17;;;9.00;;
1885;SDS011;943;51.568;6.998;2023-03-21T07:45:25;18.33;;;8.23;;
1885;SDS011;943;51.568;6.998;2023-03-21T07:47:53;12.60;;;7.07;;
1885;SDS011;943;51.568;6.998;2023-03-21T07:50:22;16.80;;;7.70;;
1885;SDS011;943;51.568;6.998;2023-03-21T07:52:50;13.30;;;6.93;;
1885;SDS011;943;51.568;6.998;2023-03-21T07:55:19;12.70;;;7.73;;
1885;SDS011;943;51.568;6.998;2023-03-21T07:57:50;13.27;;;7.13;;
1885;SDS011;943;51.568;6.998;2023-03-21T08:00:19;12.83;;;7.80;;
1885;SDS011;943;51.568;6.998;2023-03-21T08:02:49;15.03;;;7.50;;
1885;SDS011;943;51.568;6.998;2023-03-21T08:05:26;11.10;;;7.27;;
1885;SDS011;943;51.568;6.998;2023-03-21T08:08:01;16.43;;;7.80;;
1885;SDS011;943;51.568;6.998;2023-03-21T08:10:32;11.73;;;8.30;;
1885;SDS011;943;51.568;6.998;2023-03-21T08:13:00;14.17;;;7.23;;
1885;SDS011;943;51.568;6.998;2023-03-21T08:15:29;15.10;;;7.30;;
1885;SDS011;943;51.568;6.998;2023-03-21T08:17:58;14.23;;;7.40;;
1885;SDS011;943;51.568;6.998;2023-03-21T08:20:26;13.40;;;7.03;;
1885;SDS011;943;51.568;6.998;2023-03-21T08:22:55;15.00;;;7.33;;
1885;SDS011;943;51.568;6.998;2023-03-21T08:25:22;16.60;;;7.53;;
1885;SDS011;943;51.568;6.998;2023-03-21T08:27:51;17.03;;;7.80;;
1885;SDS011;943;51.568;6.998;2023-03-21T08:30:20;17.10;;;7.73;;
1885;SDS011;943;51.568;6.998;2023-03-21T08:32:57;12.90;;;8.00;;
1885;SDS011;943;51.568;6.998;2023-03-21T08:35:27;11.83;;;7.00;;
1885;SDS011;943;51.568;6.998;2023-03-21T08:37:57;9.80;;;6.97;;
1885;SDS011;943;51.568;6.998;2023-03-21T08:40:25;12.80;;;6.97;;
1885;SDS011;943;51.568;6.998;2023-03-21T08:42:52;19.60;;;7.67;;
1885;SDS011;943;51.568;6.998;2023-03-21T08:45:21;14.40;;;7.87;;
1885;SDS011;943;51.568;6.998;2023-03-21T08:47:49;17.63;;;8.70;;
1885;SDS011;943;51.568;6.998;2023-03-21T08:50:19;12.20;;;7.63;;
1885;SDS011;943;51.568;6.998;2023-03-21T08:52:51;11.40;;;6.73;;
1885;SDS011;943;51.568;6.998;2023-03-21T08:55:19;16.70;;;7.07;;
1885;SDS011;943;51.568;6.998;2023-03-21T08:57:48;18.00;;;7.47;;
1885;SDS011;943;51.568;6.998;2023-03-21T09:00:16;11.40;;;6.17;;
1885;SDS011;943;51.568;6.998;2023-03-21T09:02:46;15.03;;;6.50;;
1885;SDS011;943;51.568;6.998;2023-03-21T09:05:17;13.93;;;7.80;;
1885;SDS011;943;51.568;6.998;2023-03-21T09:07:48;12.37;;;6.10;;
1885;SDS011;943;51.568;6.998;2023-03-21T09:10:17;17.50;;;6.57;;
1885;SDS011;943;51.568;6.998;2023-03-21T09:12:50;11.03;;;5.97;;
1885;SDS011;943;51.568;6.998;2023-03-21T09:15:22;9.13;;;6.03;;
1885;SDS011;943;51.568;6.998;2023-03-21T09:17:55;12.07;;;7.30;;
1885;SDS011;943;51.568;6.998;2023-03-21T09:20:39;11.30;;;7.07;;
1885;SDS011;943;51.568;6.998;2023-03-21T09:23:11;11.37;;;7.03;;
1885;SDS011;943;51.568;6.998;2023-03-21T09:25:43;9.20;;;7.00;;
1885;SDS011;943;51.568;6.998;2023-03-21T09:28:13;14.80;;;8.10;;
1885;SDS011;943;51.568;6.998;2023-03-21T09:30:41;10.00;;;7.30;;
1885;SDS011;943;51.568;6.998;2023-03-21T09:33:10;17.07;;;7.97;;
1885;SDS011;943;51.568;6.998;2023-03-21T09:35:46;17.10;;;8.80;;
1885;SDS011;943;51.568;6.998;2023-03-21T09:38:17;12.10;;;7.30;;
1885;SDS011;943;51.568;6.998;2023-03-21T09:47:48;10.80;;;6.50;;
1885;SDS011;943;51.568;6.998;2023-03-21T09:50:28;17.93;;;8.90;;
1885;SDS011;943;51.568;6.998;2023-03-21T09:56:08;18.90;;;9.07;;
1885;SDS011;943;51.568;6.998;2023-03-21T09:58:43;17.23;;;8.00;;
1885;SDS011;943;51.568;6.998;2023-03-21T10:01:27;10.20;;;7.60;;
1885;SDS011;943;51.568;6.998;2023-03-21T10:04:10;11.90;;;7.73;;
1885;SDS011;943;51.568;6.998;2023-03-21T10:06:46;13.73;;;8.37;;
1885;SDS011;943;51.568;6.998;2023-03-21T10:09:30;12.17;;;8.00;;
1885;SDS011;943;51.568;6.998;2023-03-21T10:14:52;16.73;;;7.73;;
1885;SDS011;943;51.568;6.998;2023-03-21T10:22:44;12.40;;;7.17;;
1885;SDS011;943;51.568;6.998;2023-03-21T10:25:20;13.10;;;8.00;;
1885;SDS011;943;51.568;6.998;2023-03-21T10:28:22;13.53;;;7.40;;
1885;SDS011;943;51.568;6.998;2023-03-21T10:31:18;17.63;;;8.60;;
1885;SDS011;943;51.568;6.998;2023-03-21T10:33:56;12.17;;;9.73;;
1885;SDS011;943;51.568;6.998;2023-03-21T10:36:46;12.60;;;9.20;;
1885;SDS011;943;51.568;6.998;2023-03-21T10:39:20;11.10;;;9.00;;
1885;SDS011;943;51.568;6.998;2023-03-21T10:41:58;16.20;;;9.50;;
1885;SDS011;943;51.568;6.998;2023-03-21T10:44:30;16.60;;;9.90;;
1885;SDS011;943;51.568;6.998;2023-03-21T10:47:05;14.80;;;10.77;;
1885;SDS011;943;51.568;6.998;2023-03-21T10:49:36;18.10;;;10.03;;
1885;SDS011;943;51.568;6.998;2023-03-21T10:52:26;14.90;;;9.33;;
1885;SDS011;943;51.568;6.998;2023-03-21T10:55:14;14.50;;;7.80;;
1885;SDS011;943;51.568;6.998;2023-03-21T10:57:59;15.10;;;9.30;;
1885;SDS011;943;51.568;6.998;2023-03-21T11:00:44;14.80;;;9.30;;
1885;SDS011;943;51.568;6.998;2023-03-21T11:03:18;13.50;;;9.00;;
1885;SDS011;943;51.568;6.998;2023-03-21T11:06:04;14.10;;;8.27;;
1885;SDS011;943;51.568;6.998;2023-03-21T11:08:56;13.37;;;6.50;;
1885;SDS011;943;51.568;6.998;2023-03-21T11:14:38;15.50;;;7.37;;
1885;SDS011;943;51.568;6.998;2023-03-21T11:22:38;11.90;;;5.90;;
1885;SDS011;943;51.568;6.998;2023-03-21T11:25:14;10.30;;;6.60;;
1885;SDS011;943;51.568;6.998;2023-03-21T11:28:22;12.07;;;6.40;;
1885;SDS011;943;51.568;6.998;2023-03-21T11:31:00;13.03;;;6.43;;
1885;SDS011;943;51.568;6.998;2023-03-21T11:33:34;16.10;;;6.63;;
1885;SDS011;943;51.568;6.998;2023-03-21T11:38:51;10.37;;;6.63;;
1885;SDS011;943;51.568;6.998;2023-03-21T11:41:29;10.00;;;6.17;;
1885;SDS011;943;51.568;6.998;2023-03-21T11:44:01;9.70;;;5.70;;
1885;SDS011;943;51.568;6.998;2023-03-21T11:46:31;9.80;;;6.13;;
1885;SDS011;943;51.568;6.998;2023-03-21T11:49:07;11.53;;;6.20;;
1885;SDS011;943;51.568;6.998;2023-03-21T11:51:44;11.10;;;5.60;;
1885;SDS011;943;51.568;6.998;2023-03-21T11:58:04;11.00;;;5.80;;
1885;SDS011;943;51.568;6.998;2023-03-21T12:01:23;10.23;;;6.23;;
1885;SDS011;943;51.568;6.998;2023-03-21T12:05:16;12.53;;;6.20;;
1885;SDS011;943;51.568;6.998;2023-03-21T12:07:56;10.67;;;6.63;;
1885;SDS011;943;51.568;6.998;2023-03-21T12:11:07;9.23;;;5.80;;
1885;SDS011;943;51.568;6.998;2023-03-21T12:15:08;8.90;;;4.53;;
1885;SDS011;943;51.568;6.998;2023-03-21T12:18:05;10.37;;;5.50;;
1885;SDS011;943;51.568;6.998;2023-03-21T12:34:26;8.20;;;4.33;;
1885;SDS011;943;51.568;6.998;2023-03-21T12:41:25;6.23;;;3.70;;
1885;SDS011;943;51.568;6.998;2023-03-21T12:44:14;7.97;;;4.70;;
1885;SDS011;943;51.568;6.998;2023-03-21T12:46:50;5.23;;;3.73;;
1885;SDS011;943;51.568;6.998;2023-03-21T12:52:33;5.97;;;3.20;;
1885;SDS011;943;51.568;6.998;2023-03-21T12:55:19;6.23;;;3.60;;
1885;SDS011;943;51.568;6.998;2023-03-21T13:00:45;6.63;;;3.80;;
1885;SDS011;943;51.568;6.998;2023-03-21T13:03:33;7.93;;;4.50;;
1885;SDS011;943;51.568;6.998;2023-03-21T13:06:12;7.07;;;4.40;;
1885;SDS011;943;51.568;6.998;2023-03-21T13:12:35;9.13;;;4.10;;
1885;SDS011;943;51.568;6.998;2023-03-21T13:27:51;9.53;;;4.30;;
1885;SDS011;943;51.568;6.998;2023-03-21T13:30:31;7.20;;;4.30;;
1885;SDS011;943;51.568;6.998;2023-03-21T13:33:16;6.43;;;4.47;;
1885;SDS011;943;51.568;6.998;2023-03-21T13:36:14;5.50;;;4.00;;
1885;SDS011;943;51.568;6.998;2023-03-21T13:38:58;6.93;;;3.87;;
1885;SDS011;943;51.568;6.998;2023-03-21T13:41:36;6.47;;;3.90;;
1885;SDS011;943;51.568;6.998;2023-03-21T13:44:15;7.43;;;4.13;;
1885;SDS011;943;51.568;6.998;2023-03-21T13:47:23;9.90;;;4.60;;
1885;SDS011;943;51.568;6.998;2023-03-21T13:58:51;7.00;;;3.40;;
1885;SDS011;943;51.568;6.998;2023-03-21T14:01:30;7.37;;;4.20;;
1885;SDS011;943;51.568;6.998;2023-03-21T14:05:26;4.73;;;3.77;;
1885;SDS011;943;51.568;6.998;2023-03-21T14:08:00;8.43;;;4.23;;
1885;SDS011;943;51.568;6.998;2023-03-21T14:10:45;7.93;;;3.90;;
1885;SDS011;943;51.568;6.998;2023-03-21T14:13:25;7.57;;;3.90;;
1885;SDS011;943;51.568;6.998;2023-03-21T14:16:00;8.97;;;4.33;;
1885;SDS011;943;51.568;6.998;2023-03-21T14:18:46;6.00;;;4.27;;
1885;SDS011;943;51.568;6.998;2023-03-21T14:21:33;9.20;;;4.43;;
1885;SDS011;943;51.568;6.998;2023-03-21T14:24:06;6.20;;;3.80;;
1885;SDS011;943;51.568;6.998;2023-03-21T14:26:49;7.20;;;4.27;;
1885;SDS011;943;51.568;6.998;2023-03-21T14:29:23;10.33;;;4.70;;
1885;SDS011;943;51.568;6.998;2023-03-21T14:32:01;7.20;;;4.57;;
1885;SDS011;943;51.568;6.998;2023-03-21T14:34:32;9.70;;;4.57;;
1885;SDS011;943;51.568;6.998;2023-03-21T14:37:05;8.00;;;4.37;;
1885;SDS011;943;51.568;6.998;2023-03-21T14:39:37;9.10;;;4.17;;
1885;SDS011;943;51.568;6.998;2023-03-21T14:42:08;9.47;;;4.30;;
1885;SDS011;943;51.568;6.998;2023-03-21T14:44:42;9.27;;;5.23;;
1885;SDS011;943;51.568;6.998;2023-03-21T14:47:25;6.03;;;4.00;;
1885;SDS011;943;51.568;6.998;2023-03-21T14:49:57;9.90;;;4.40;;
1885;SDS011;943;51.568;6.998;2023-03-21T14:52:30;9.30;;;4.40;;
1885;SDS011;943;51.568;6.998;2023-03-21T14:55:00;4.43;;;3.90;;
1885;SDS011;943;51.568;6.998;2023-03-21T14:57:42;7.00;;;4.17;;
1885;SDS011;943;51.568;6.998;2023-03-21T15:00:13;7.70;;;4.30;;
1885;SDS011;943;51.568;6.998;2023-03-21T15:02:57;9.40;;;3.50;;
1885;SDS011;943;51.568;6.998;2023-03-21T15:05:30;8.27;;;4.33;;
1885;SDS011;943;51.568;6.998;2023-03-21T15:08:08;6.00;;;4.03;;
1885;SDS011;943;51.568;6.998;2023-03-21T15:10:55;6.23;;;4.27;;
1885;SDS011;943;51.568;6.998;2023-03-21T15:13:35;7.57;;;4.03;;
1885;SDS011;943;51.568;6.998;2023-03-21T15:16:18;7.27;;;4.80;;
1885;SDS011;943;51.568;6.998;2023-03-21T15:18:48;9.13;;;5.10;;
1885;SDS011;943;51.568;6.998;2023-03-21T15:21:24;7.57;;;4.10;;
1885;SDS011;943;51.568;6.998;2023-03-21T15:26:58;6.10;;;4.50;;
1885;SDS011;943;51.568;6.998;2023-03-21T15:29:38;7.43;;;4.77;;
1885;SDS011;943;51.568;6.998;2023-03-21T15:32:18;6.20;;;4.17;;
1885;SDS011;943;51.568;6.998;2023-03-21T15:34:53;11.23;;;4.80;;
1885;SDS011;943;51.568;6.998;2023-03-21T15:37:40;5.97;;;4.40;;
1885;SDS011;943;51.568;6.998;2023-03-21T15:40:14;5.67;;;3.83;;
1885;SDS011;943;51.568;6.998;2023-03-21T15:43:04;5.57;;;3.87;;
1885;SDS011;943;51.568;6.998;2023-03-21T15:45:46;6.73;;;3.83;;
1885;SDS011;943;51.568;6.998;2023-03-21T15:48:21;9.43;;;4.40;;
1885;SDS011;943;51.568;6.998;2023-03-21T15:51:03;5.37;;;4.10;;
1885;SDS011;943;51.568;6.998;2023-03-21T15:53:44;6.90;;;4.27;;
1885;SDS011;943;51.568;6.998;2023-03-21T15:56:13;6.10;;;4.27;;
1885;SDS011;943;51.568;6.998;2023-03-21T15:58:42;7.40;;;5.33;;
1885;SDS011;943;51.568;6.998;2023-03-21T16:01:18;8.90;;;4.97;;
1885;SDS011;943;51.568;6.998;2023-03-21T16:03:56;6.13;;;4.33;;
1885;SDS011;943;51.568;6.998;2023-03-21T16:06:49;5.37;;;4.40;;
1885;SDS011;943;51.568;6.998;2023-03-21T16:09:37;5.97;;;4.20;;
1885;SDS011;943;51.568;6.998;2023-03-21T16:12:13;9.53;;;4.63;;
1885;SDS011;943;51.568;6.998;2023-03-21T16:14:44;9.97;;;5.80;;
1885;SDS011;943;51.568;6.998;2023-03-21T16:20:15;8.70;;;4.80;;
1885;SDS011;943;51.568;6.998;2023-03-21T16:22:51;8.93;;;5.90;;
1885;SDS011;943;51.568;6.998;2023-03-21T16:25:19;8.17;;;4.80;;
1885;SDS011;943;51.568;6.998;2023-03-21T16:27:48;7.73;;;5.17;;
1885;SDS011;943;51.568;6.998;2023-03-21T16:30:17;9.53;;;5.00;;
1885;SDS011;943;51.568;6.998;2023-03-21T16:32:48;9.93;;;5.10;;
1885;SDS011;943;51.568;6.998;2023-03-21T16:35:17;5.43;;;3.87;;
1885;SDS011;943;51.568;6.998;2023-03-21T16:37:49;7.77;;;4.80;;
1885;SDS011;943;51.568;6.998;2023-03-21T16:40:28;6.40;;;4.10;;
1885;SDS011;943;51.568;6.998;2023-03-21T16:43:05;6.70;;;4.17;;
1885;SDS011;943;51.568;6.998;2023-03-21T16:45:34;8.70;;;5.33;;
1885;SDS011;943;51.568;6.998;2023-03-21T16:48:02;5.97;;;4.23;;
1885;SDS011;943;51.568;6.998;2023-03-21T16:50:32;8.67;;;4.37;;
1885;SDS011;943;51.568;6.998;2023-03-21T16:53:14;7.60;;;4.50;;
1885;SDS011;943;51.568;6.998;2023-03-21T16:55:42;6.90;;;4.20;;
1885;SDS011;943;51.568;6.998;2023-03-21T16:58:10;11.07;;;4.93;;
1885;SDS011;943;51.568;6.998;2023-03-21T17:00:42;6.43;;;4.77;;
1885;SDS011;943;51.568;6.998;2023-03-21T17:03:14;5.10;;;3.87;;
1885;SDS011;943;51.568;6.998;2023-03-21T17:05:47;10.10;;;4.63;;
1885;SDS011;943;51.568;6.998;2023-03-21T17:08:16;14.83;;;5.00;;
1885;SDS011;943;51.568;6.998;2023-03-21T17:10:47;7.97;;;5.33;;
1885;SDS011;943;51.568;6.998;2023-03-21T17:13:16;7.50;;;4.97;;
1885;SDS011;943;51.568;6.998;2023-03-21T17:15:44;9.63;;;4.70;;
1885;SDS011;943;51.568;6.998;2023-03-21T17:18:12;8.33;;;4.97;;
1885;SDS011;943;51.568;6.998;2023-03-21T17:20:40;7.87;;;4.90;;
1885;SDS011;943;51.568;6.998;2023-03-21T17:23:12;5.83;;;4.30;;
1885;SDS011;943;51.568;6.998;2023-03-21T17:25:40;7.30;;;4.30;;
1885;SDS011;943;51.568;6.998;2023-03-21T17:28:08;8.43;;;4.13;;
1885;SDS011;943;51.568;6.998;2023-03-21T17:30:36;7.57;;;4.23;;
1885;SDS011;943;51.568;6.998;2023-03-21T17:33:06;7.80;;;4.40;;
1885;SDS011;943;51.568;6.998;2023-03-21T17:35:34;6.73;;;4.70;;
1885;SDS011;943;51.568;6.998;2023-03-21T17:38:03;8.20;;;4.93;;
1885;SDS011;943;51.568;6.998;2023-03-21T17:40:38;8.03;;;5.30;;
1885;SDS011;943;51.568;6.998;2023-03-21T17:43:16;14.33;;;5.50;;
1885;SDS011;943;51.568;6.998;2023-03-21T17:45:47;8.07;;;5.00;;
1885;SDS011;943;51.568;6.998;2023-03-21T17:48:15;7.67;;;4.67;;
1885;SDS011;943;51.568;6.998;2023-03-21T17:50:43;11.33;;;4.90;;
1885;SDS011;943;51.568;6.998;2023-03-21T17:53:11;7.50;;;4.90;;
1885;SDS011;943;51.568;6.998;2023-03-21T17:55:39;9.70;;;5.70;;
1885;SDS011;943;51.568;6.998;2023-03-21T17:58:06;8.67;;;5.10;;
1885;SDS011;943;51.568;6.998;2023-03-21T18:00:37;12.03;;;6.83;;
1885;SDS011;943;51.568;6.998;2023-03-21T18:03:06;9.27;;;5.90;;
1885;SDS011;943;51.568;6.998;2023-03-21T18:05:34;9.23;;;5.40;;
1885;SDS011;943;51.568;6.998;2023-03-21T18:08:03;12.00;;;5.07;;
1885;SDS011;943;51.568;6.998;2023-03-21T18:10:37;8.90;;;6.20;;
1885;SDS011;943;51.568;6.998;2023-03-21T18:13:08;6.70;;;5.77;;
1885;SDS011;943;51.568;6.998;2023-03-21T18:15:36;6.73;;;4.90;;
1885;SDS011;943;51.568;6.998;2023-03-21T18:18:10;10.27;;;6.30;;